Country
Station

 

Weather  for  Dallas, Dallas Love Field  -  United States    United States

  
29 °C (84 °F)
    
 
 

Current METAR for Dallas, Dallas Love Field is :

KDAL 171053Z 21007KT 9SM FEW300 29/20 A3000 RMK AO2 SLP151 T02890200

 

This is a report for Dallas, Dallas Love Field - United States.
 
The report was made 15 minutes ago, at 10:53 UTC .
The wind was blowing at a speed of 3.6 meters per second (8.1 miles per hour) from south/southwest (210°).
 
The temperature was 29 °C (84 °F), with a dew-point at 20 °C (68 °F).
The temperature felt like 31 °C (87 °F).
 
The atmospheric pressure was 1016 hPa (30.00 inHg).
The relative humidity was 58.4%.
 
There were a few clouds at a height of 9144 meters (30000 feet).
 
The overall visibility was 14.5 kilometers (9.0 miles).
 

 
 
 
 

Country :   A   B   C   D   E   F   G   H   I   J   K   L   M   N   O   P   Q   R   S   T   U   V   W   Y   Z

 

Site Info  |  Disclaimer  |  Credits  |  Privacy
Contact us  |  Add to favorites
© 2013-2018 METARs - All rights reserved